createdAt,value
2019-05-30T00:01:34.342Z,76.79
2019-05-30T00:04:04.928Z,76.66
2019-05-30T00:06:34.438Z,77.37
2019-05-30T00:09:05.315Z,77.28
2019-05-30T00:11:34.853Z,76.40
2019-05-30T00:14:04.964Z,75.73
2019-05-30T00:16:34.512Z,75.29
2019-05-30T00:19:05.039Z,74.40
2019-05-30T00:21:34.549Z,73.34
2019-05-30T00:24:04.294Z,72.65
2019-05-30T00:26:33.640Z,71.78
2019-05-30T00:29:03.046Z,71.37
2019-05-30T00:31:32.881Z,70.59
2019-05-30T00:34:02.560Z,70.32
2019-05-30T00:36:33.205Z,70.05
2019-05-30T00:39:04.325Z,69.98
2019-05-30T00:41:33.699Z,70.21
2019-05-30T00:44:04.353Z,70.21
2019-05-30T00:46:34.074Z,69.89
2019-05-30T00:49:04.545Z,70.38
2019-05-30T00:51:34.085Z,70.63
2019-05-30T00:54:04.727Z,70.31
2019-05-30T00:56:34.277Z,70.44
2019-05-30T00:59:04.923Z,70.48
2019-05-30T01:01:34.446Z,70.28
2019-05-30T01:04:04.926Z,69.94
2019-05-30T01:06:34.503Z,69.72
2019-05-30T01:09:05.468Z,69.84
2019-05-30T01:11:34.921Z,69.79
2019-05-30T01:14:05.429Z,69.65
2019-05-30T01:16:35.031Z,69.60
2019-05-30T01:19:05.269Z,69.70
2019-05-30T01:21:34.941Z,69.60
2019-05-30T01:24:05.647Z,69.41
2019-05-30T01:26:35.280Z,69.42
2019-05-30T01:29:05.555Z,69.34
2019-05-30T01:31:35.252Z,69.36
2019-05-30T01:34:05.870Z,69.70
2019-05-30T01:37:29.011Z,69.91
2019-05-30T01:39:59.647Z,69.94
2019-05-30T01:42:29.458Z,70.29
2019-05-30T01:45:00.214Z,70.32
2019-05-30T01:47:29.765Z,70.16
2019-05-30T01:50:00.305Z,69.85
2019-05-30T01:52:30.027Z,70.01
2019-05-30T01:55:00.473Z,69.97
2019-05-30T01:57:29.843Z,69.84
2019-05-30T02:00:00.690Z,69.62
2019-05-30T02:02:30.207Z,69.24
2019-05-30T02:05:01.086Z,69.44
2019-05-30T02:07:30.756Z,69.19
2019-05-30T02:10:01.114Z,69.23
2019-05-30T02:15:35.580Z,68.76
2019-05-30T02:18:05.768Z,68.37
2019-05-30T02:20:35.437Z,68.11
2019-05-30T02:23:06.107Z,67.91
2019-05-30T02:25:36.085Z,67.15
2019-05-30T02:28:06.271Z,66.66
2019-05-30T02:30:35.847Z,66.58
2019-05-30T02:33:06.814Z,66.55
2019-05-30T02:35:36.398Z,66.25
2019-05-30T02:38:07.353Z,66.34
2019-05-30T02:40:37.391Z,66.28
2019-05-30T02:43:07.565Z,66.78
2019-05-30T02:45:37.615Z,66.75
2019-05-30T02:48:07.469Z,66.42
2019-05-30T02:50:36.995Z,66.42
2019-05-30T02:53:08.174Z,66.32
2019-05-30T02:55:37.682Z,66.16
2019-05-30T02:58:08.617Z,65.87
2019-05-30T03:00:38.466Z,65.62
2019-05-30T03:03:09.764Z,65.75
2019-05-30T03:05:39.687Z,65.84
2019-05-30T03:08:12.165Z,66.21
2019-05-30T03:10:41.573Z,67.01
2019-05-30T03:13:12.868Z,66.67
2019-05-30T03:15:42.818Z,65.95
2019-05-30T03:18:14.667Z,65.12
2019-05-30T03:20:43.842Z,64.39
2019-05-30T03:23:14.722Z,63.93
2019-05-30T03:25:44.631Z,63.48
2019-05-30T03:28:14.107Z,62.75
2019-05-30T03:30:45.556Z,62.24
2019-05-30T03:33:34.764Z,61.61
2019-05-30T03:35:46.696Z,61.36
2019-05-30T03:38:16.204Z,60.81
2019-05-30T03:40:45.851Z,60.24
2019-05-30T03:43:16.067Z,59.57
2019-05-30T03:45:45.926Z,58.98
2019-05-30T03:48:18.923Z,58.43
2019-05-30T03:50:51.828Z,57.79
2019-05-30T03:53:23.028Z,57.35
2019-05-30T03:55:57.736Z,57.00
2019-05-30T03:58:37.318Z,56.38
2019-05-30T04:01:10.185Z,55.77
2019-05-30T04:03:58.206Z,56.44
2019-05-30T04:06:31.694Z,55.68
2019-05-30T04:09:07.325Z,55.26
2019-05-30T04:11:51.462Z,54.87
2019-05-30T04:14:25.117Z,54.15
2019-05-30T04:16:54.456Z,54.32
2019-05-30T04:19:23.935Z,53.25
2019-05-30T04:21:53.556Z,53.35
2019-05-30T04:24:22.921Z,53.12
2019-05-30T04:26:52.441Z,52.48
2019-05-30T04:29:21.960Z,52.17
2019-05-30T04:31:51.434Z,51.18
2019-05-30T04:34:20.801Z,50.19
2019-05-30T04:36:53.167Z,49.60
2019-05-30T04:39:21.463Z,48.95
2019-05-30T04:41:50.848Z,49.11
2019-05-30T04:44:20.642Z,47.30
2019-05-30T04:46:50.288Z,47.35
2019-05-30T04:49:21.626Z,46.13
2019-05-30T04:51:50.892Z,44.40
2019-05-30T04:54:21.429Z,45.26
2019-05-30T04:56:51.075Z,44.80
2019-05-30T04:59:21.927Z,43.12
2019-05-30T05:01:51.752Z,42.65
2019-05-30T05:04:21.771Z,42.47
2019-05-30T05:06:51.525Z,41.53
2019-05-30T05:09:22.365Z,42.21
2019-05-30T05:11:51.920Z,41.26
2019-05-30T05:14:22.774Z,40.85
2019-05-30T05:16:52.584Z,40.88
2019-05-30T05:19:24.950Z,40.48
2019-05-30T05:21:53.212Z,40.89
2019-05-30T05:24:23.634Z,40.57
2019-05-30T05:26:53.231Z,40.62
2019-05-30T05:29:23.799Z,40.25
2019-05-30T05:31:53.821Z,40.21
2019-05-30T05:34:23.179Z,39.60
2019-05-30T05:36:52.595Z,39.51
2019-05-30T05:39:22.305Z,39.49
2019-05-30T05:41:51.930Z,39.70
2019-05-30T05:44:22.371Z,39.93
2019-05-30T05:46:51.774Z,40.38
2019-05-30T05:49:22.534Z,41.66
2019-05-30T05:51:52.179Z,41.71
2019-05-30T05:54:22.885Z,41.97
2019-05-30T05:56:52.382Z,41.57
2019-05-30T05:59:23.013Z,40.76
2019-05-30T06:01:52.530Z,40.61
2019-05-30T06:04:23.143Z,39.64
2019-05-30T06:06:52.794Z,38.45
2019-05-30T06:09:22.588Z,37.98
2019-05-30T06:11:52.103Z,38.43
2019-05-30T06:14:21.969Z,39.53
2019-05-30T06:16:51.545Z,40.43
2019-05-30T06:19:21.208Z,41.25
2019-05-30T06:21:54.129Z,42.39
2019-05-30T06:24:22.139Z,43.18
2019-05-30T06:26:51.640Z,42.48
2019-05-30T06:29:22.126Z,42.99
2019-05-30T06:31:51.571Z,43.21
2019-05-30T06:34:32.762Z,42.74
2019-05-30T06:36:52.297Z,42.99
2019-05-30T06:39:21.646Z,43.17
2019-05-30T06:41:51.133Z,42.71
2019-05-30T06:44:21.798Z,42.87
2019-05-30T06:46:51.321Z,42.72
2019-05-30T06:49:20.883Z,43.25
2019-05-30T06:51:50.415Z,43.62
2019-05-30T06:54:21.360Z,43.55
2019-05-30T06:56:50.976Z,42.97
2019-05-30T06:59:21.430Z,43.18
2019-05-30T07:01:52.246Z,43.37
2019-05-30T07:04:23.320Z,43.42
2019-05-30T07:06:53.136Z,43.32
2019-05-30T07:09:22.814Z,43.41
2019-05-30T07:11:52.381Z,43.20
2019-05-30T07:14:22.969Z,42.75
2019-05-30T07:16:52.439Z,42.93
2019-05-30T07:19:23.238Z,41.94
2019-05-30T07:21:52.925Z,42.58
2019-05-30T07:24:23.622Z,43.40
2019-05-30T07:26:53.404Z,43.04
2019-05-30T07:29:23.940Z,43.53
2019-05-30T07:31:53.361Z,43.38
2019-05-30T07:34:23.910Z,43.75
2019-05-30T07:36:53.514Z,43.48
2019-05-30T07:39:22.882Z,43.58
2019-05-30T07:42:05.808Z,43.34
2019-05-30T07:44:24.519Z,43.79
2019-05-30T07:46:54.068Z,43.39
2019-05-30T07:49:23.448Z,42.64
2019-05-30T07:51:52.899Z,42.88
2019-05-30T07:54:22.433Z,43.52
2019-05-30T07:56:51.905Z,44.19
2019-05-30T07:59:21.339Z,43.50
2019-05-30T08:01:51.551Z,43.21
2019-05-30T08:04:20.917Z,41.90
2019-05-30T08:06:50.317Z,42.62
2019-05-30T08:09:19.858Z,41.96
2019-05-30T08:11:49.922Z,41.97
2019-05-30T08:14:19.603Z,42.07
2019-05-30T08:16:48.968Z,42.35
2019-05-30T08:19:18.455Z,42.09
2019-05-30T08:21:47.991Z,41.39
2019-05-30T08:24:17.485Z,40.38
2019-05-30T08:26:46.836Z,40.94
2019-05-30T08:29:16.408Z,40.24
2019-05-30T08:31:45.974Z,39.95
2019-05-30T08:34:15.328Z,40.28
2019-05-30T08:36:44.733Z,40.94
2019-05-30T08:39:14.317Z,41.13
2019-05-30T08:41:43.914Z,42.22
2019-05-30T08:44:13.387Z,41.38
2019-05-30T08:46:42.912Z,41.59
2019-05-30T08:49:12.886Z,40.62
2019-05-30T08:51:42.363Z,40.28
2019-05-30T08:54:13.962Z,40.43
2019-05-30T08:56:42.878Z,40.04
2019-05-30T08:59:12.357Z,39.78
2019-05-30T09:01:42.260Z,39.53
2019-05-30T09:04:11.788Z,38.91
2019-05-30T09:06:42.011Z,38.37
2019-05-30T09:09:11.998Z,38.22
2019-05-30T09:11:42.325Z,38.96
2019-05-30T09:14:11.821Z,37.65
2019-05-30T09:16:41.622Z,38.71
2019-05-30T09:19:11.510Z,37.96
2019-05-30T09:21:41.446Z,37.42
2019-05-30T09:24:11.074Z,36.04
2019-05-30T09:26:45.489Z,36.25
2019-05-30T09:29:12.198Z,35.30
2019-05-30T09:31:42.806Z,35.17
2019-05-30T09:34:13.674Z,35.58
2019-05-30T09:36:43.147Z,36.62
2019-05-30T09:39:12.602Z,36.79
2019-05-30T09:41:42.226Z,36.44
2019-05-30T09:44:12.936Z,36.47
2019-05-30T09:46:42.602Z,36.18
2019-05-30T09:49:12.049Z,37.04
2019-05-30T09:51:42.547Z,36.65
2019-05-30T09:54:12.680Z,36.39
2019-05-30T09:56:43.353Z,36.42
2019-05-30T09:59:13.287Z,36.78
2019-05-30T10:01:44.245Z,35.86
2019-05-30T10:04:13.808Z,36.40
2019-05-30T10:06:43.613Z,35.83
2019-05-30T10:09:14.013Z,35.21
2019-05-30T10:11:44.492Z,34.98
2019-05-30T10:14:14.644Z,35.88
2019-05-30T10:16:47.880Z,35.11
2019-05-30T10:19:15.306Z,35.04
2019-05-30T10:21:45.960Z,34.30
2019-05-30T10:24:15.874Z,34.59
2019-05-30T10:26:46.130Z,34.29
2019-05-30T10:29:16.602Z,34.79
2019-05-30T10:31:46.505Z,34.58
2019-05-30T10:34:16.056Z,35.42
2019-05-30T10:36:47.226Z,34.95
2019-05-30T10:39:16.790Z,34.69
2019-05-30T10:41:47.478Z,33.83
2019-05-30T10:44:17.110Z,33.42
2019-05-30T10:46:47.569Z,33.90
2019-05-30T10:49:31.516Z,32.38
2019-05-30T10:51:49.624Z,33.40
2019-05-30T10:54:19.248Z,32.97
2019-05-30T10:56:49.975Z,31.96
2019-05-30T10:59:19.442Z,32.29
2019-05-30T11:01:50.228Z,32.07
2019-05-30T11:04:19.962Z,31.37
2019-05-30T11:07:18.807Z,31.46
2019-05-30T11:09:52.868Z,31.71
2019-05-30T11:12:22.262Z,32.32
2019-05-30T11:14:51.777Z,33.10
2019-05-30T11:17:21.222Z,32.73
2019-05-30T11:19:51.762Z,32.10
2019-05-30T11:22:21.620Z,31.79
2019-05-30T11:24:52.625Z,31.32
2019-05-30T11:27:22.252Z,31.51
2019-05-30T11:29:52.884Z,32.46
2019-05-30T11:32:22.622Z,32.50
2019-05-30T11:34:53.063Z,32.76
2019-05-30T11:37:22.632Z,32.55
2019-05-30T11:39:53.252Z,33.40
2019-05-30T11:42:22.693Z,33.93
2019-05-30T11:44:52.057Z,34.16
2019-05-30T11:47:21.494Z,33.54
2019-05-30T11:49:51.615Z,32.80
2019-05-30T11:52:21.193Z,33.67
2019-05-30T11:54:51.972Z,33.13
2019-05-30T11:57:21.524Z,33.26
2019-05-30T11:59:52.147Z,32.48
2019-05-30T12:02:21.729Z,32.64
2019-05-30T12:04:52.487Z,32.66
2019-05-30T12:07:35.442Z,32.51
2019-05-30T12:09:53.198Z,31.84
2019-05-30T12:12:22.655Z,32.83
2019-05-30T12:14:53.316Z,32.59
2019-05-30T12:17:22.975Z,32.20
2019-05-30T12:19:53.401Z,33.36
2019-05-30T12:22:22.856Z,34.21
2019-05-30T12:24:53.779Z,33.96
2019-05-30T12:27:23.406Z,34.23
2019-05-30T12:29:54.011Z,34.15
2019-05-30T12:32:23.540Z,33.96
2019-05-30T12:34:54.280Z,34.33
2019-05-30T12:37:23.855Z,34.09
2019-05-30T12:39:54.465Z,34.97
2019-05-30T12:42:24.048Z,34.72
2019-05-30T12:44:53.380Z,34.55
2019-05-30T12:47:22.890Z,33.86
2019-05-30T12:49:53.264Z,33.57
2019-05-30T12:52:22.868Z,33.63
2019-05-30T12:54:52.272Z,33.51
2019-05-30T12:57:21.649Z,33.83
2019-05-30T12:59:51.170Z,33.45
2019-05-30T13:02:20.643Z,34.83
2019-05-30T13:04:49.998Z,35.95
2019-05-30T13:07:19.376Z,36.07
2019-05-30T13:09:48.977Z,36.52
2019-05-30T13:12:18.436Z,35.76
2019-05-30T13:14:47.807Z,35.35
2019-05-30T13:17:17.335Z,36.15
2019-05-30T13:19:46.912Z,36.25
2019-05-30T13:22:16.319Z,36.32
2019-05-30T13:24:45.830Z,35.48
2019-05-30T13:27:15.323Z,36.20
2019-05-30T13:29:44.678Z,36.17
2019-05-30T13:32:14.085Z,36.55
2019-05-30T13:34:43.576Z,36.66
2019-05-30T13:37:13.146Z,36.36
2019-05-30T13:39:42.535Z,37.03
2019-05-30T13:42:11.902Z,37.22
2019-05-30T13:44:41.448Z,37.84
2019-05-30T13:47:11.095Z,37.94
2019-05-30T13:49:40.449Z,37.45
2019-05-30T13:52:09.968Z,37.11
2019-05-30T13:54:39.647Z,37.30
2019-05-30T13:57:09.773Z,38.44
2019-05-30T13:59:39.222Z,38.65
2019-05-30T14:02:08.710Z,38.77
2019-05-30T14:04:38.216Z,38.21
2019-05-30T14:07:08.482Z,37.38
2019-05-30T14:09:37.911Z,36.69
2019-05-30T14:12:07.273Z,36.45
2019-05-30T14:14:36.732Z,36.86
2019-05-30T14:17:09.518Z,36.83
2019-05-30T14:19:37.342Z,35.66
2019-05-30T14:22:07.261Z,34.59
2019-05-30T14:24:36.864Z,35.33
2019-05-30T14:27:07.540Z,35.25
2019-05-30T14:29:36.979Z,35.76
2019-05-30T14:32:06.388Z,36.22
2019-05-30T14:34:35.853Z,36.08
2019-05-30T14:37:06.393Z,36.66
2019-05-30T14:39:35.903Z,36.08
2019-05-30T14:42:05.410Z,36.07
2019-05-30T14:44:34.764Z,37.58
2019-05-30T14:47:04.316Z,37.11
2019-05-30T14:49:33.823Z,36.83
2019-05-30T14:52:04.537Z,36.99
2019-05-30T14:54:34.033Z,36.83
2019-05-30T14:57:03.425Z,37.08
2019-05-30T14:59:32.973Z,36.76
2019-05-30T15:02:02.491Z,37.52
2019-05-30T15:04:31.875Z,36.91
2019-05-30T15:07:01.321Z,36.92
2019-05-30T15:09:30.821Z,35.95
2019-05-30T15:12:00.260Z,35.55
2019-05-30T15:14:29.607Z,35.41
2019-05-30T15:16:59.015Z,35.51
2019-05-30T15:19:28.510Z,35.34
2019-05-30T15:21:57.889Z,35.19
2019-05-30T15:24:27.374Z,35.62
2019-05-30T15:26:56.924Z,35.98
2019-05-30T15:29:26.288Z,35.96
2019-05-30T15:31:55.705Z,36.60
2019-05-30T15:34:25.194Z,37.15
2019-05-30T15:36:54.617Z,38.08
2019-05-30T15:39:32.418Z,37.79
2019-05-30T15:41:55.165Z,38.59
2019-05-30T15:44:24.573Z,38.57
2019-05-30T15:46:54.077Z,38.93
2019-05-30T15:49:23.547Z,38.83
2019-05-30T15:51:52.917Z,38.85
2019-05-30T15:54:22.427Z,39.33
2019-05-30T15:56:51.871Z,40.60
2019-05-30T15:59:21.279Z,40.31
2019-05-30T16:01:50.768Z,40.67
2019-05-30T16:04:20.527Z,40.68
2019-05-30T16:06:49.985Z,40.58
2019-05-30T16:09:19.515Z,40.82
2019-05-30T16:11:48.978Z,40.05
2019-05-30T16:14:19.415Z,39.11
2019-05-30T16:16:48.860Z,39.94
2019-05-30T16:19:23.298Z,39.75
2019-05-30T16:21:49.586Z,39.64
2019-05-30T16:24:18.998Z,40.15
2019-05-30T16:26:48.394Z,40.20
2019-05-30T16:29:17.851Z,40.65
2019-05-30T16:31:47.380Z,40.74
2019-05-30T16:34:17.974Z,41.07
2019-05-30T16:36:47.513Z,41.11
2019-05-30T16:39:18.122Z,41.42
2019-05-30T16:41:47.609Z,41.68
2019-05-30T16:44:18.381Z,41.44
2019-05-30T16:46:48.679Z,41.72
2019-05-30T16:49:18.536Z,41.55
2019-05-30T16:51:48.006Z,41.69
2019-05-30T16:54:17.507Z,42.05
2019-05-30T16:56:47.048Z,41.71
2019-05-30T16:59:16.608Z,41.42
2019-05-30T17:01:56.436Z,42.18
2019-05-30T17:04:17.296Z,41.64
2019-05-30T17:06:46.778Z,42.62
2019-05-30T17:09:17.185Z,42.34
2019-05-30T17:11:46.562Z,42.49
2019-05-30T17:14:16.041Z,42.66
2019-05-30T17:16:45.546Z,43.05
2019-05-30T17:19:16.344Z,43.53
2019-05-30T17:21:46.077Z,43.75
2019-05-30T17:24:16.866Z,43.48
2019-05-30T17:26:46.346Z,43.83
2019-05-30T17:29:15.813Z,43.60
2019-05-30T17:31:45.359Z,43.56
2019-05-30T17:34:14.713Z,43.68
2019-05-30T17:36:44.094Z,43.49
2019-05-30T17:39:14.097Z,46.43
2019-05-30T17:41:43.549Z,47.71
2019-05-30T17:44:12.911Z,49.63
2019-05-30T17:46:42.462Z,51.26
2019-05-30T17:49:11.941Z,57.80
2019-05-30T17:51:42.818Z,71.39
2019-05-30T17:54:12.267Z,95.43
2019-05-30T17:56:41.677Z,100.00
2019-05-30T17:59:11.130Z,100.00
2019-05-30T18:01:40.710Z,100.00
2019-05-30T18:04:11.211Z,100.00
2019-05-30T18:06:40.697Z,100.00
2019-05-30T18:09:10.122Z,100.00
2019-05-30T18:11:39.982Z,100.00
2019-05-30T18:14:09.585Z,100.00
2019-05-30T18:16:40.463Z,100.00
2019-05-30T18:19:10.165Z,100.00
2019-05-30T18:21:39.777Z,100.00
2019-05-30T18:24:09.303Z,100.00
2019-05-30T18:26:38.794Z,100.00
2019-05-30T18:29:08.163Z,100.00
2019-05-30T18:31:37.608Z,100.00
2019-05-30T18:34:07.086Z,100.00
2019-05-30T18:36:39.253Z,100.00
2019-05-30T18:39:09.128Z,100.00
2019-05-30T18:41:38.597Z,100.00
2019-05-30T18:44:07.986Z,100.00
2019-05-30T18:46:38.683Z,100.00
2019-05-30T18:49:08.390Z,100.00
2019-05-30T18:51:37.868Z,100.00
2019-05-30T18:54:07.299Z,100.00
2019-05-30T18:56:37.015Z,100.00
2019-05-30T18:59:06.651Z,100.00
2019-05-30T19:01:37.771Z,100.00
2019-05-30T19:04:07.328Z,100.00
2019-05-30T19:06:36.748Z,100.00
2019-05-30T19:09:07.951Z,100.00
2019-05-30T19:11:38.467Z,100.00
2019-05-30T19:14:07.825Z,100.00
2019-05-30T19:16:37.279Z,100.00
2019-05-30T19:19:06.755Z,100.00
2019-05-30T19:21:36.282Z,100.00
2019-05-30T19:24:06.159Z,100.00
2019-05-30T19:26:36.731Z,100.00
2019-05-30T19:29:06.299Z,100.00
2019-05-30T19:31:36.961Z,100.00
2019-05-30T19:34:06.523Z,100.00
2019-05-30T19:36:35.914Z,100.00
2019-05-30T19:39:07.224Z,100.00
2019-05-30T19:41:53.413Z,100.00
2019-05-30T19:44:08.807Z,100.00
2019-05-30T19:46:38.447Z,100.00
2019-05-30T19:49:07.904Z,100.00
2019-05-30T19:51:37.376Z,100.00
2019-05-30T19:54:06.791Z,100.00
2019-05-30T19:56:38.967Z,100.00
2019-05-30T19:59:07.572Z,100.00
2019-05-30T20:01:38.012Z,100.00
2019-05-30T20:04:07.600Z,100.00
2019-05-30T20:06:37.063Z,100.00
2019-05-30T20:09:08.462Z,100.00
2019-05-30T20:11:39.007Z,100.00
2019-05-30T20:14:08.902Z,100.00
2019-05-30T20:16:39.831Z,100.00
2019-05-30T20:19:09.308Z,100.00
2019-05-30T20:21:39.845Z,100.00
2019-05-30T20:24:09.402Z,100.00
2019-05-30T20:26:38.865Z,100.00
2019-05-30T20:29:08.275Z,100.00
2019-05-30T20:31:37.706Z,100.00
2019-05-30T20:34:07.302Z,100.00
2019-05-30T20:36:36.776Z,100.00
2019-05-30T20:39:07.145Z,100.00
2019-05-30T20:41:36.905Z,100.00
2019-05-30T20:44:06.411Z,100.00
2019-05-30T20:46:36.959Z,100.00
2019-05-30T20:49:06.677Z,100.00
2019-05-30T20:51:37.180Z,100.00
2019-05-30T20:54:07.345Z,100.00
2019-05-30T20:56:37.360Z,100.00
2019-05-30T20:59:10.004Z,100.00
2019-05-30T21:01:38.198Z,100.00
2019-05-30T21:04:07.570Z,100.00
2019-05-30T21:06:38.719Z,100.00
2019-05-30T21:09:27.476Z,100.00
2019-05-30T21:11:44.341Z,100.00
2019-05-30T21:14:15.950Z,100.00
2019-05-30T21:16:49.197Z,100.00
2019-05-30T21:19:18.648Z,100.00
2019-05-30T21:21:48.088Z,100.00
2019-05-30T21:24:17.547Z,100.00
2019-05-30T21:26:47.049Z,100.00
2019-05-30T21:29:16.403Z,100.00
2019-05-30T21:31:46.323Z,100.00
2019-05-30T21:34:17.032Z,100.00
2019-05-30T21:36:46.590Z,100.00
2019-05-30T21:39:17.019Z,100.00
2019-05-30T21:41:46.429Z,100.00
2019-05-30T21:44:15.959Z,100.00
2019-05-30T21:46:46.665Z,100.00
2019-05-30T21:49:16.154Z,100.00
2019-05-30T21:51:45.574Z,100.00
2019-05-30T21:54:15.039Z,100.00
2019-05-30T21:56:45.884Z,100.00
2019-05-30T21:59:15.650Z,100.00
2019-05-30T22:01:46.549Z,100.00
2019-05-30T22:04:16.152Z,100.00
2019-05-30T22:06:45.569Z,100.00
2019-05-30T22:09:15.170Z,100.00
2019-05-30T22:11:45.572Z,100.00
2019-05-30T22:14:15.158Z,100.00
2019-05-30T22:16:45.912Z,100.00
2019-05-30T22:19:15.473Z,100.00
2019-05-30T22:21:46.116Z,100.00
2019-05-30T22:24:15.508Z,100.00
2019-05-30T22:26:46.353Z,100.00
2019-05-30T22:29:16.455Z,100.00
2019-05-30T22:31:46.585Z,100.00
2019-05-30T22:34:16.627Z,100.00
2019-05-30T22:36:49.206Z,100.00
2019-05-30T22:39:18.703Z,100.00
2019-05-30T22:41:48.084Z,100.00
2019-05-30T22:44:17.595Z,100.00
2019-05-30T22:46:48.089Z,100.00
2019-05-30T22:49:17.549Z,100.00
2019-05-30T22:51:47.142Z,100.00
2019-05-30T22:54:16.614Z,100.00
2019-05-30T22:56:47.244Z,100.00
2019-05-30T22:59:16.673Z,100.00
2019-05-30T23:01:46.951Z,100.00
2019-05-30T23:04:16.424Z,100.00
2019-05-30T23:06:46.311Z,100.00
2019-05-30T23:09:15.742Z,100.00
2019-05-30T23:11:45.583Z,100.00
2019-05-30T23:14:15.250Z,100.00
2019-05-30T23:16:46.048Z,100.00
2019-05-30T23:19:16.590Z,100.00
2019-05-30T23:21:46.802Z,100.00
2019-05-30T23:24:16.175Z,100.00
2019-05-30T23:26:45.668Z,100.00
2019-05-30T23:29:15.194Z,100.00
2019-05-30T23:31:44.671Z,100.00
2019-05-30T23:37:54.713Z,100.00
2019-05-30T23:40:24.451Z,100.00
2019-05-30T23:42:55.121Z,100.00
2019-05-30T23:45:24.760Z,100.00
2019-05-30T23:47:54.199Z,100.00
2019-05-30T23:50:23.796Z,100.00
2019-05-30T23:52:54.062Z,100.00
2019-05-30T23:55:23.632Z,100.00
2019-05-30T23:57:53.123Z,100.00
